createdAt,value
2022-09-05T00:00:23.751Z,26.68
2022-09-05T00:03:21.298Z,26.69
2022-09-05T00:06:14.952Z,26.69
2022-09-05T00:09:07.547Z,26.72
2022-09-05T00:11:47.497Z,26.72
2022-09-05T00:14:15.952Z,26.74
2022-09-05T00:18:01.578Z,26.76
2022-09-05T00:24:22.998Z,26.79
2022-09-05T00:24:31.031Z,26.80
2022-09-05T00:26:57.215Z,26.83
2022-09-05T00:30:48.633Z,26.84
2022-09-05T00:32:49.165Z,26.86
2022-09-05T00:35:54.036Z,26.88
2022-09-05T00:38:36.444Z,26.91
2022-09-05T00:41:15.128Z,26.91
2022-09-05T00:43:49.601Z,26.94
2022-09-05T00:46:28.148Z,26.95
2022-09-05T00:49:12.870Z,26.98
2022-09-05T00:52:01.794Z,26.99
2022-09-05T00:54:42.336Z,27.01
2022-09-05T00:57:43.474Z,27.02
2022-09-05T01:00:34.769Z,27.04
2022-09-05T01:03:24.973Z,27.06
2022-09-05T01:06:18.629Z,27.08
2022-09-05T01:09:07.582Z,27.06
2022-09-05T01:12:06.918Z,27.09
2022-09-05T01:14:41.188Z,27.10
2022-09-05T01:17:25.049Z,27.10
2022-09-05T01:20:19.348Z,27.12
2022-09-05T01:23:37.983Z,27.12
2022-09-05T01:26:12.336Z,27.13
2022-09-05T01:29:16.446Z,27.13
2022-09-05T01:32:16.466Z,27.15
2022-09-05T01:35:03.221Z,27.16
2022-09-05T01:38:01.930Z,27.16
2022-09-05T01:40:48.356Z,27.18
2022-09-05T01:44:04.938Z,27.20
2022-09-05T01:46:41.266Z,27.23
2022-09-05T01:49:35.734Z,27.23
2022-09-05T01:52:34.845Z,27.24
2022-09-05T01:55:27.391Z,27.26
2022-09-05T01:58:04.757Z,27.27
2022-09-05T02:00:51.678Z,27.27
2022-09-05T02:03:35.118Z,27.27
2022-09-05T02:06:25.163Z,27.26
2022-09-05T02:09:15.927Z,27.28
2022-09-05T02:12:00.895Z,27.30
2022-09-05T02:14:55.329Z,27.33
2022-09-05T02:17:51.228Z,27.37
2022-09-05T02:20:35.290Z,27.42
2022-09-05T02:23:41.056Z,27.46
2022-09-05T02:26:17.649Z,27.52
2022-09-05T02:29:08.352Z,27.55
2022-09-05T02:31:53.573Z,27.57
2022-09-05T02:34:43.886Z,27.61
2022-09-05T02:38:43.928Z,27.64
2022-09-05T02:45:09.515Z,27.67
2022-09-05T02:45:20.533Z,27.70
2022-09-05T02:47:23.639Z,27.74
2022-09-05T02:53:59.224Z,27.77
2022-09-05T02:57:37.964Z,27.80
2022-09-05T02:58:06.325Z,27.82
2022-09-05T02:59:59.037Z,27.83
2022-09-05T03:02:55.382Z,27.83
2022-09-05T03:05:30.197Z,27.85
2022-09-05T03:08:01.381Z,27.88
2022-09-05T03:10:55.017Z,27.90
2022-09-05T03:13:53.924Z,27.92
2022-09-05T03:16:46.947Z,27.93
2022-09-05T03:19:50.149Z,27.94
2022-09-05T03:22:37.865Z,27.97
2022-09-05T03:25:06.352Z,27.98
2022-09-05T03:27:52.908Z,28.01
2022-09-05T03:30:29.232Z,28.04
2022-09-05T03:33:24.113Z,28.05
2022-09-05T03:36:23.153Z,28.08
2022-09-05T03:39:24.993Z,28.10
2022-09-05T03:42:14.730Z,28.11
2022-09-05T03:45:08.894Z,28.12
2022-09-05T03:48:28.312Z,28.15
2022-09-05T03:57:12.858Z,28.15
2022-09-05T03:57:15.049Z,28.16
2022-09-05T03:57:36.949Z,28.18
2022-09-05T04:00:23.457Z,28.22
2022-09-05T04:08:07.676Z,28.23
2022-09-05T04:08:18.077Z,28.24
2022-09-05T04:09:37.102Z,28.25
2022-09-05T04:12:18.872Z,28.29
2022-09-05T04:14:57.013Z,28.31
2022-09-05T04:17:45.155Z,28.33
2022-09-05T04:20:19.544Z,28.36
2022-09-05T04:23:13.745Z,28.39
2022-09-05T04:26:11.491Z,28.42
2022-09-05T04:28:56.984Z,28.45
2022-09-05T04:31:48.322Z,28.48
2022-09-05T04:34:27.919Z,28.51
2022-09-05T04:37:08.321Z,28.54
2022-09-05T04:39:38.183Z,28.58
2022-09-05T04:42:06.810Z,28.61
2022-09-05T04:44:55.833Z,28.66
2022-09-05T04:47:36.927Z,28.70
2022-09-05T04:50:18.704Z,28.73
2022-09-05T04:53:06.974Z,28.77
2022-09-05T04:55:58.940Z,28.80
2022-09-05T05:00:07.582Z,28.80
2022-09-05T05:06:01.210Z,28.81
2022-09-05T05:06:20.302Z,28.82
2022-09-05T05:07:40.596Z,28.86
2022-09-05T05:11:56.216Z,28.89
2022-09-05T05:17:54.817Z,28.98
2022-09-05T05:18:14.075Z,29.05
2022-09-05T05:19:42.947Z,29.09
2022-09-05T05:22:19.470Z,29.17
2022-09-05T05:24:57.250Z,29.24
2022-09-05T05:27:35.516Z,29.32
2022-09-05T05:30:10.505Z,29.39
2022-09-05T05:32:45.465Z,29.46
2022-09-05T05:35:20.070Z,29.49
2022-09-05T05:38:19.559Z,29.57
2022-09-05T05:41:22.100Z,29.62
2022-09-05T05:43:52.855Z,29.68
2022-09-05T05:46:35.947Z,29.71
2022-09-05T05:49:34.802Z,29.78
2022-09-05T05:52:14.965Z,29.81
2022-09-05T05:55:48.861Z,29.87
2022-09-05T05:58:17.166Z,29.94
2022-09-05T06:01:08.609Z,29.98
2022-09-05T06:03:53.585Z,30.02
2022-09-05T06:06:55.749Z,30.07
2022-09-05T06:14:52.792Z,30.13
2022-09-05T06:14:57.128Z,30.22
2022-09-05T06:15:59.094Z,30.25
2022-09-05T06:19:03.008Z,30.27
2022-09-05T06:22:14.986Z,30.25
2022-09-05T06:24:54.831Z,30.24
2022-09-05T06:28:17.954Z,30.25
2022-09-05T06:31:29.386Z,30.32
2022-09-05T06:34:33.244Z,30.32
2022-09-05T06:37:28.095Z,30.35
2022-09-05T06:40:18.249Z,30.40
2022-09-05T06:42:58.612Z,30.39
2022-09-05T06:45:58.991Z,30.38
2022-09-05T06:49:28.292Z,30.36
2022-09-05T06:51:44.979Z,30.33
2022-09-05T06:54:36.824Z,30.32
2022-09-05T06:57:22.819Z,30.30
2022-09-05T07:00:03.369Z,30.30
2022-09-05T07:02:59.415Z,30.30
2022-09-05T07:05:44.893Z,30.30
2022-09-05T07:08:36.128Z,30.33
2022-09-05T07:11:37.541Z,30.37
2022-09-05T07:14:32.224Z,30.39
2022-09-05T07:17:17.781Z,30.42
2022-09-05T07:20:01.963Z,30.42
2022-09-05T07:22:48.401Z,30.42
2022-09-05T07:25:27.341Z,30.40
2022-09-05T07:28:29.056Z,30.36
2022-09-05T07:31:11.395Z,30.31
2022-09-05T07:33:42.026Z,30.29
2022-09-05T07:36:33.382Z,30.27
2022-09-05T07:39:27.571Z,30.26
2022-09-05T07:41:59.583Z,30.26
2022-09-05T07:44:36.471Z,30.27
2022-09-05T07:47:08.513Z,30.29
2022-09-05T07:49:51.863Z,30.32
2022-09-05T07:56:50.434Z,30.35
2022-09-05T07:57:09.947Z,30.42
2022-09-05T07:58:42.755Z,30.44
2022-09-05T08:01:15.950Z,30.44
2022-09-05T08:03:47.482Z,30.38
2022-09-05T08:07:14.314Z,30.33
2022-09-05T08:10:06.596Z,30.29
2022-09-05T08:12:27.605Z,30.25
2022-09-05T08:15:10.222Z,30.22
2022-09-05T08:18:11.796Z,30.19
2022-09-05T08:21:12.542Z,30.18
2022-09-05T08:24:25.395Z,30.18
2022-09-05T08:27:06.118Z,30.14
2022-09-05T08:30:24.904Z,30.13
2022-09-05T08:33:03.427Z,30.08
2022-09-05T08:36:02.604Z,29.94
2022-09-05T08:38:40.521Z,29.78
2022-09-05T08:41:50.271Z,29.59
2022-09-05T08:46:39.789Z,29.41
2022-09-05T08:47:55.795Z,29.23
2022-09-05T08:50:36.319Z,29.12
2022-09-05T08:53:26.899Z,29.04
2022-09-05T08:56:26.615Z,28.94
2022-09-05T08:59:28.524Z,28.92
2022-09-05T09:02:47.873Z,28.88
2022-09-05T09:06:11.973Z,28.83
2022-09-05T09:08:53.530Z,28.82
2022-09-05T09:11:36.709Z,28.85
2022-09-05T09:14:36.560Z,28.84
2022-09-05T09:17:44.987Z,28.86
2022-09-05T09:20:32.087Z,28.84
2022-09-05T09:23:06.596Z,28.84
2022-09-05T09:26:19.684Z,28.88
2022-09-05T09:29:22.039Z,28.88
2022-09-05T09:32:17.972Z,28.90
2022-09-05T09:34:53.244Z,28.92
2022-09-05T09:37:50.396Z,28.93
2022-09-05T09:41:00.891Z,28.91
2022-09-05T09:43:53.135Z,28.93
2022-09-05T09:46:44.601Z,28.91
2022-09-05T09:50:01.882Z,28.89
2022-09-05T09:52:45.390Z,28.89
2022-09-05T09:55:42.120Z,28.88
2022-09-05T09:58:19.324Z,28.84
2022-09-05T10:01:20.171Z,28.84
2022-09-05T10:10:40.137Z,28.83
2022-09-05T10:10:57.450Z,28.81
2022-09-05T10:14:49.890Z,28.72
2022-09-05T10:17:30.279Z,28.66
2022-09-05T10:20:12.062Z,28.58
2022-09-05T10:22:50.207Z,28.49
2022-09-05T10:25:49.942Z,28.42
2022-09-05T10:28:27.178Z,28.34
2022-09-05T10:32:20.737Z,28.28
2022-09-05T10:35:14.037Z,28.21
2022-09-05T10:37:15.442Z,28.15
2022-09-05T10:39:52.070Z,28.06
2022-09-05T10:42:38.563Z,27.88
2022-09-05T10:45:48.425Z,27.65
2022-09-05T10:48:29.564Z,27.39
2022-09-05T10:51:02.261Z,27.22
2022-09-05T10:53:51.936Z,27.05
2022-09-05T10:56:29.903Z,26.91
2022-09-05T10:59:33.160Z,26.80
2022-09-05T11:02:22.309Z,26.72
2022-09-05T11:05:29.758Z,26.61
2022-09-05T11:08:20.361Z,26.58
2022-09-05T11:10:53.227Z,26.53
2022-09-05T11:13:47.130Z,26.47
2022-09-05T11:16:39.943Z,26.44
2022-09-05T11:19:24.922Z,26.41
2022-09-05T11:22:22.516Z,26.38
2022-09-05T11:24:59.814Z,26.37
2022-09-05T11:27:31.349Z,26.38
2022-09-05T11:30:29.926Z,26.37
2022-09-05T11:36:20.248Z,26.38
2022-09-05T11:39:59.999Z,26.39
2022-09-05T11:40:08.283Z,26.41
2022-09-05T11:43:03.027Z,26.41
2022-09-05T11:45:56.503Z,26.42
2022-09-05T11:48:27.692Z,26.43
2022-09-05T11:51:35.698Z,26.41
2022-09-05T11:54:27.745Z,26.41
2022-09-05T11:57:33.091Z,26.40
2022-09-05T12:00:46.027Z,26.38
2022-09-05T12:03:59.259Z,26.37
2022-09-05T12:06:55.932Z,26.37
2022-09-05T12:09:53.555Z,26.38
2022-09-05T12:12:41.561Z,26.38
2022-09-05T12:15:29.287Z,26.39
2022-09-05T12:18:01.771Z,26.38
2022-09-05T12:20:37.509Z,26.37
2022-09-05T12:24:00.049Z,26.35
2022-09-05T12:27:41.087Z,26.32
2022-09-05T12:30:06.221Z,26.30
2022-09-05T12:36:01.333Z,26.29
2022-09-05T12:36:09.705Z,26.26
2022-09-05T12:40:56.977Z,26.24
2022-09-05T12:42:20.704Z,26.24
2022-09-05T12:45:10.646Z,26.23
2022-09-05T12:47:57.811Z,26.22
2022-09-05T12:50:56.017Z,26.21
2022-09-05T12:53:26.113Z,26.21
2022-09-05T12:57:06.522Z,26.19
2022-09-05T13:02:56.547Z,26.18
2022-09-05T13:03:07.759Z,26.17
2022-09-05T13:04:52.573Z,26.17
2022-09-05T13:07:45.165Z,26.15
2022-09-05T13:14:44.721Z,26.15
2022-09-05T13:15:02.800Z,26.15
2022-09-05T13:16:33.208Z,26.16
2022-09-05T13:19:10.135Z,26.16
2022-09-05T13:21:53.780Z,26.15
2022-09-05T13:24:35.302Z,26.15
2022-09-05T13:27:16.481Z,26.14
2022-09-05T13:31:12.375Z,26.14
2022-09-05T13:38:01.011Z,26.14
2022-09-05T13:38:19.872Z,26.15
2022-09-05T13:39:04.956Z,26.17
2022-09-05T13:41:51.326Z,26.17
2022-09-05T13:44:25.035Z,26.18
2022-09-05T13:47:00.583Z,26.18
2022-09-05T13:50:05.229Z,26.19
2022-09-05T13:52:47.573Z,26.21
2022-09-05T13:55:45.985Z,26.22
2022-09-05T13:58:35.337Z,26.24
2022-09-05T14:01:32.848Z,26.24
2022-09-05T14:07:46.510Z,26.27
2022-09-05T14:10:24.444Z,26.27
2022-09-05T14:13:16.539Z,26.27
2022-09-05T14:15:58.961Z,26.28
2022-09-05T14:18:27.687Z,26.28
2022-09-05T14:21:16.866Z,26.28
2022-09-05T14:24:04.936Z,26.29
2022-09-05T14:26:47.154Z,26.31
2022-09-05T14:29:15.575Z,26.31
2022-09-05T14:37:36.152Z,26.32
2022-09-05T14:37:49.607Z,26.32
2022-09-05T14:38:27.436Z,26.30
2022-09-05T14:41:17.131Z,26.31
2022-09-05T14:44:06.445Z,26.32
2022-09-05T14:47:35.497Z,26.33
2022-09-05T14:50:28.656Z,26.34
2022-09-05T14:57:23.068Z,26.35
2022-09-05T15:02:43.267Z,26.36
2022-09-05T15:02:50.347Z,26.36
2022-09-05T15:05:11.566Z,26.35
2022-09-05T15:08:18.297Z,26.36
2022-09-05T15:12:21.502Z,26.36
2022-09-05T15:14:09.150Z,26.37
2022-09-05T15:16:44.485Z,26.38
2022-09-05T15:19:15.147Z,26.37
2022-09-05T15:21:43.720Z,26.37
2022-09-05T15:24:31.249Z,26.38
2022-09-05T15:27:05.472Z,26.39
2022-09-05T15:29:36.617Z,26.41
2022-09-05T15:32:24.393Z,26.42
2022-09-05T15:34:55.888Z,26.43
2022-09-05T15:37:38.159Z,26.45
2022-09-05T15:40:22.511Z,26.45
2022-09-05T15:42:59.138Z,26.47
2022-09-05T15:45:32.930Z,26.48
2022-09-05T15:48:08.145Z,26.48
2022-09-05T15:50:58.929Z,26.49
2022-09-05T15:53:39.689Z,26.50
2022-09-05T15:56:11.293Z,26.48
2022-09-05T15:59:01.642Z,26.50
2022-09-05T16:01:59.120Z,26.51
2022-09-05T16:07:39.651Z,26.52
2022-09-05T16:10:48.418Z,26.52
2022-09-05T16:10:57.934Z,26.53
2022-09-05T16:13:45.850Z,26.52
2022-09-05T16:23:11.644Z,26.51
2022-09-05T16:23:17.215Z,26.51
2022-09-05T16:23:27.594Z,26.49
2022-09-05T16:25:10.940Z,26.50
2022-09-05T16:28:04.999Z,26.48
2022-09-05T16:30:39.123Z,26.49
2022-09-05T16:33:25.596Z,26.48
2022-09-05T16:36:17.116Z,26.47
2022-09-05T16:38:59.695Z,26.47
2022-09-05T16:41:49.162Z,26.45
2022-09-05T16:44:36.737Z,26.44
2022-09-05T16:47:14.988Z,26.44
2022-09-05T16:49:57.356Z,26.42
2022-09-05T16:52:54.276Z,26.43
2022-09-05T16:55:55.448Z,26.44
2022-09-05T16:58:33.790Z,26.45
2022-09-05T17:01:32.774Z,26.45
2022-09-05T17:04:31.132Z,26.44
2022-09-05T17:07:17.995Z,26.44
2022-09-05T17:09:47.524Z,26.44
2022-09-05T17:12:26.706Z,26.44
2022-09-05T17:15:04.245Z,26.43
2022-09-05T17:18:20.442Z,26.42
2022-09-05T17:20:38.101Z,26.42
2022-09-05T17:29:15.721Z,26.41
2022-09-05T17:29:30.407Z,26.41
2022-09-05T17:32:57.249Z,26.40
2022-09-05T17:35:59.522Z,26.39
2022-09-05T17:38:49.997Z,26.38
2022-09-05T17:41:44.231Z,26.39
2022-09-05T17:44:21.801Z,26.37
2022-09-05T17:46:59.366Z,26.37
2022-09-05T17:49:48.220Z,26.37
2022-09-05T17:52:23.965Z,26.37
2022-09-05T17:54:55.286Z,26.36
2022-09-05T17:57:29.983Z,26.35
2022-09-05T18:00:11.261Z,26.33
2022-09-05T18:02:57.646Z,26.32
2022-09-05T18:06:04.915Z,26.30
2022-09-05T18:14:34.971Z,26.26
2022-09-05T18:17:36.332Z,26.25
2022-09-05T18:19:57.864Z,26.25
2022-09-05T18:22:32.124Z,26.26
2022-09-05T18:25:32.192Z,26.25
2022-09-05T18:28:52.872Z,26.26
2022-09-05T18:31:41.507Z,26.27
2022-09-05T18:34:20.239Z,26.28
2022-09-05T18:36:56.007Z,26.28
2022-09-05T18:39:40.284Z,26.29
2022-09-05T18:42:25.692Z,26.28
2022-09-05T18:45:03.554Z,26.28
2022-09-05T18:47:51.148Z,26.26
2022-09-05T18:50:35.211Z,26.26
2022-09-05T18:53:13.020Z,26.24
2022-09-05T18:56:12.518Z,26.23
2022-09-05T18:59:24.371Z,26.23
2022-09-05T19:02:04.579Z,26.23
2022-09-05T19:04:43.992Z,26.21
2022-09-05T19:07:26.023Z,26.20
2022-09-05T19:10:35.514Z,26.20
2022-09-05T19:13:00.261Z,26.21
2022-09-05T19:15:33.279Z,26.22
2022-09-05T19:18:26.903Z,26.22
2022-09-05T19:21:18.837Z,26.22
2022-09-05T19:23:55.449Z,26.23
2022-09-05T19:26:25.443Z,26.22
2022-09-05T19:34:44.102Z,26.23
2022-09-05T19:36:46.815Z,26.23
2022-09-05T19:36:50.326Z,26.25
2022-09-05T19:37:44.499Z,26.24
2022-09-05T19:47:34.630Z,26.24
2022-09-05T19:47:38.378Z,26.23
2022-09-05T19:47:47.750Z,26.22
2022-09-05T19:49:13.447Z,26.23
2022-09-05T19:51:43.707Z,26.22
2022-09-05T19:54:33.190Z,26.21
2022-09-05T19:57:04.627Z,26.20
2022-09-05T19:59:40.210Z,26.21
2022-09-05T20:02:15.476Z,26.21
2022-09-05T20:04:59.401Z,26.22
2022-09-05T20:07:30.166Z,26.20
2022-09-05T20:10:02.470Z,26.20
2022-09-05T20:12:38.495Z,26.19
2022-09-05T20:15:19.433Z,26.19
2022-09-05T20:17:49.133Z,26.19
2022-09-05T20:20:28.201Z,26.19
2022-09-05T20:23:03.672Z,26.19
2022-09-05T20:25:43.598Z,26.18
2022-09-05T20:28:21.773Z,26.17
2022-09-05T20:31:02.882Z,26.17
2022-09-05T20:33:44.757Z,26.18
2022-09-05T20:43:08.621Z,26.17
2022-09-05T20:43:15.899Z,26.18
2022-09-05T20:43:16.678Z,26.18
2022-09-05T20:44:53.499Z,26.19
2022-09-05T20:54:10.060Z,26.19
2022-09-05T20:54:14.765Z,26.19
2022-09-05T20:54:18.859Z,26.21
2022-09-05T20:56:32.008Z,26.19
2022-09-05T20:59:01.956Z,26.18
2022-09-05T21:01:33.723Z,26.16
2022-09-05T21:04:07.186Z,26.14
2022-09-05T21:06:38.460Z,26.14
2022-09-05T21:09:26.284Z,26.14
2022-09-05T21:11:59.959Z,26.14
2022-09-05T21:14:30.564Z,26.13
2022-09-05T21:17:15.169Z,26.14
2022-09-05T21:19:54.230Z,26.14
2022-09-05T21:22:24.778Z,26.13
2022-09-05T21:25:19.883Z,26.13
2022-09-05T21:28:23.501Z,26.13
2022-09-05T21:31:15.801Z,26.13
2022-09-05T21:33:46.221Z,26.12
2022-09-05T21:36:16.875Z,26.14
2022-09-05T21:38:45.814Z,26.13
2022-09-05T21:41:17.934Z,26.13
2022-09-05T21:47:35.464Z,26.13
2022-09-05T21:47:48.686Z,26.13
2022-09-05T21:49:27.052Z,26.13
2022-09-05T21:51:56.097Z,26.10
2022-09-05T21:59:16.356Z,26.11
2022-09-05T21:59:21.636Z,26.10
2022-09-05T22:00:18.676Z,26.10
2022-09-05T22:02:49.998Z,26.11
2022-09-05T22:05:18.796Z,26.10
2022-09-05T22:07:49.581Z,26.11
2022-09-05T22:10:18.277Z,26.12
2022-09-05T22:12:47.001Z,26.13
2022-09-05T22:15:27.391Z,26.12
2022-09-05T22:18:16.162Z,26.11
2022-09-05T22:21:24.667Z,26.13
2022-09-05T22:23:41.637Z,26.11
2022-09-05T22:26:10.177Z,26.11
2022-09-05T22:28:47.255Z,26.12
2022-09-05T22:31:17.575Z,26.12
2022-09-05T22:33:50.820Z,26.11
2022-09-05T22:36:20.043Z,26.11
2022-09-05T22:38:48.765Z,26.12
2022-09-05T22:41:17.393Z,26.11
2022-09-05T22:43:47.389Z,26.13
2022-09-05T22:46:16.832Z,26.12
2022-09-05T22:48:45.468Z,26.12
2022-09-05T22:51:14.337Z,26.13
2022-09-05T22:53:42.871Z,26.13
2022-09-05T22:56:11.805Z,26.14
2022-09-05T22:58:46.635Z,26.15
2022-09-05T23:01:15.241Z,26.14
2022-09-05T23:03:43.973Z,26.15
2022-09-05T23:06:12.667Z,26.16
2022-09-05T23:08:41.423Z,26.16
2022-09-05T23:11:15.551Z,26.17
2022-09-05T23:13:44.490Z,26.17
2022-09-05T23:16:13.069Z,26.19
2022-09-05T23:18:41.893Z,26.21
2022-09-05T23:21:13.378Z,26.22
2022-09-05T23:23:42.865Z,26.23
2022-09-05T23:26:14.198Z,26.23
2022-09-05T23:28:44.353Z,26.25
2022-09-05T23:31:13.968Z,26.25
2022-09-05T23:33:44.391Z,26.27
2022-09-05T23:36:17.783Z,26.27
2022-09-05T23:38:46.553Z,26.29
2022-09-05T23:41:16.837Z,26.30
2022-09-05T23:43:45.404Z,26.31
2022-09-05T23:46:14.335Z,26.32
2022-09-05T23:48:42.954Z,26.32
2022-09-05T23:51:13.511Z,26.35
2022-09-05T23:53:42.342Z,26.36
2022-09-05T23:56:12.313Z,26.37
2022-09-05T23:58:41.188Z,26.38
